»·PEaware :: ACA1628 KOAK-KLAX

ACA1628 :: KOAK-KLAX

FLIGHT INFORMATION

Flight Status: Arrived
Operator:
Air Canada
More flights by this operator :: More flights under this callsign
Pilot: Kyle M. (9350)
Aircraft: BOEING 767-300
(B763)
More flights by this aircraft type
Origin: KOAK Metro Oakland Intl
United States
Destination: KLAX Los Angeles Intl
United States
More flights between these airports :: More routes between these airports
Route: CNDEL3 EBAYE BURGL BAYST1
File this flight plan on PilotEdge
Remarks: CptCanada - Youtube Livestreams
Altitude:
(Current/Filed)
35,000ft
Speed:
(Current/Filed)
475kts
Departed: 04-Jul-18 01:04 PM
Arrived: 04-Jul-18 02:08 PM
Distance/Time
Traveled:
293nm/1:04
Distance/Time
To Go:
Arrived

Flight Plot

Page will automatically refresh every two minutes.

Flight plan parsing failed; only flown route is shown


Map Options




Map Legend


Flown Route
Filed Route
Departure Airport
Arrival Airport
Navaid (VOR, NDB)
Fix

Horizontal Profiles

Position Reports

Time Latitude Longitude Heading Altitude Ground
Speed
04-Jul-18 12:49 37.711211 -122.213108 58 18ft 0kts
04-Jul-18 12:50 37.711211 -122.213108 58 18ft 0kts
04-Jul-18 12:51 37.711211 -122.213108 58 18ft 0kts
04-Jul-18 12:52 37.711211 -122.213108 58 18ft 0kts
04-Jul-18 12:53 37.711211 -122.213108 58 18ft 0kts
04-Jul-18 12:54 37.711211 -122.213108 58 18ft 0kts
04-Jul-18 12:55 37.711171 -122.213189 58 18ft 2kts
04-Jul-18 12:56 37.710853 -122.213831 58 18ft 2kts
04-Jul-18 12:57 37.710392 -122.214003 320 18ft 2kts
04-Jul-18 12:58 37.710319 -122.213477 240 18ft 0kts
04-Jul-18 12:59 37.710319 -122.213477 240 18ft 0kts
04-Jul-18 13:00 37.709921 -122.214330 237 18ft 7kts
04-Jul-18 13:01 37.708797 -122.215870 220 18ft 8kts
04-Jul-18 13:02 37.706181 -122.217498 134 18ft 13kts
04-Jul-18 13:03 37.702840 -122.213602 167 18ft 19kts
04-Jul-18 13:04 37.712098 -122.230022 305 73ft 179kts
04-Jul-18 13:05 37.750550 -122.287506 306 3125ft 240kts
04-Jul-18 13:06 37.790380 -122.361318 269 7013ft 264kts
04-Jul-18 13:07 37.739237 -122.415180 192 10113ft 297kts
04-Jul-18 13:08 37.647715 -122.437528 191 13555ft 357kts
04-Jul-18 13:09 37.548761 -122.460773 191 17688ft 373kts
04-Jul-18 13:10 37.447939 -122.430531 143 19000ft 388kts
04-Jul-18 13:11 37.377610 -122.324161 134 21233ft 406kts
04-Jul-18 13:12 37.300588 -122.217646 135 24400ft 422kts
04-Jul-18 13:13 37.219095 -122.107394 135 26902ft 444kts
04-Jul-18 13:14 37.133427 -121.992038 135 29216ft 463kts
04-Jul-18 13:15 37.044438 -121.872645 135 31474ft 476kts
04-Jul-18 13:16 36.954811 -121.752823 136 34224ft 469kts
04-Jul-18 13:17 36.866404 -121.635087 136 35065ft 464kts
04-Jul-18 13:18 36.778725 -121.518769 136 35080ft 463kts
04-Jul-18 13:19 36.690455 -121.402060 136 35078ft 463kts
04-Jul-18 13:20 36.602257 -121.285860 137 35074ft 463kts
04-Jul-18 13:21 36.514163 -121.170213 137 35074ft 464kts
04-Jul-18 13:22 36.425476 -121.053609 134 35074ft 465kts
04-Jul-18 13:23 36.341148 -120.932012 134 34993ft 467kts
04-Jul-18 13:24 36.256338 -120.810461 134 34994ft 468kts
04-Jul-18 13:25 36.171425 -120.689220 134 35021ft 467kts
04-Jul-18 13:26 36.086088 -120.567819 134 35020ft 468kts
04-Jul-18 13:27 36.000883 -120.447041 134 34994ft 468kts
04-Jul-18 13:28 35.915756 -120.326802 134 34989ft 468kts
04-Jul-18 13:29 35.820132 -120.224934 151 35001ft 461kts
04-Jul-18 13:30 35.711648 -120.142144 151 34994ft 460kts
04-Jul-18 13:31 35.602598 -120.059850 151 34994ft 461kts
04-Jul-18 13:32 35.493731 -119.977841 151 35019ft 461kts
04-Jul-18 13:33 35.387107 -119.897739 151 34927ft 429kts
04-Jul-18 13:34 35.285546 -119.820650 146 33927ft 445kts
04-Jul-18 13:35 35.186945 -119.728867 145 31406ft 434kts
04-Jul-18 13:36 35.089008 -119.637628 144 29351ft 453kts
04-Jul-18 13:37 34.989459 -119.545095 144 27221ft 446kts
04-Jul-18 13:38 34.895898 -119.458912 145 25281ft 426kts
04-Jul-18 13:39 34.806977 -119.379372 144 23543ft 417kts
04-Jul-18 13:40 34.720896 -119.302989 146 22550ft 390kts
04-Jul-18 13:41 34.632301 -119.225800 146 20485ft 392kts
04-Jul-18 13:43 34.545580 -119.150625 145 19225ft 373kts
04-Jul-18 13:44 34.461331 -119.076037 146 17561ft 366kts
04-Jul-18 13:45 34.379180 -119.004511 146 16265ft 351kts
04-Jul-18 13:46 34.303505 -118.937403 145 13975ft 343kts
04-Jul-18 13:47 34.228360 -118.868913 144 12529ft 339kts
04-Jul-18 13:48 34.155979 -118.801089 139 11906ft 310kts
04-Jul-18 13:49 34.094816 -118.734385 139 11175ft 294kts
04-Jul-18 13:50 34.036468 -118.668537 124 9302ft 284kts
04-Jul-18 13:51 34.021864 -118.577875 98 8158ft 282kts
04-Jul-18 13:52 34.012834 -118.484804 98 7463ft 269kts
04-Jul-18 13:53 34.020088 -118.400660 80 7292ft 241kts
04-Jul-18 13:54 34.033278 -118.324226 70 6606ft 237kts
04-Jul-18 13:55 34.052845 -118.249711 76 5693ft 228kts
04-Jul-18 13:56 34.069936 -118.176148 76 4181ft 227kts
04-Jul-18 13:57 34.085785 -118.103101 76 3968ft 226kts
04-Jul-18 13:58 34.101733 -118.029620 76 3981ft 234kts
04-Jul-18 13:59 34.097177 -117.957765 150 3978ft 225kts
04-Jul-18 14:00 34.051623 -117.984812 236 3990ft 198kts
04-Jul-18 14:01 34.021159 -118.040912 236 3965ft 202kts
04-Jul-18 14:02 33.991522 -118.098434 236 3963ft 200kts
04-Jul-18 14:03 33.976625 -118.162058 260 3963ft 199kts
04-Jul-18 14:04 33.970366 -118.223248 260 3133ft 174kts
04-Jul-18 14:05 33.965032 -118.275615 262 2198ft 141kts
04-Jul-18 14:06 33.960660 -118.319292 261 1393ft 128kts
04-Jul-18 14:07 33.956157 -118.362021 261 804ft 127kts
04-Jul-18 14:08 33.951922 -118.403708 261 156ft 127kts
04-Jul-18 14:09 33.948748 -118.426468 229 138ft 15kts
04-Jul-18 14:10 33.948098 -118.427234 217 138ft 7kts
04-Jul-18 14:11 33.946543 -118.425148 82 138ft 15kts
04-Jul-18 14:12 33.947127 -118.419447 83 138ft 18kts
04-Jul-18 14:13 33.947964 -118.412677 82 138ft 21kts
04-Jul-18 14:14 33.948687 -118.405508 83 138ft 22kts
04-Jul-18 14:15 33.946651 -118.402507 189 138ft 11kts
04-Jul-18 14:16 33.946023 -118.403171 244 138ft 0kts

Navigation Log

Ident Type
Flight plan parsing failed, navigation log unavailable